Cap Ferrat, France

9:30 PM CET on February 09, 2016 (GMT +0100)
Nice-Cote d'Azur | | Change Station
CLOSE
Current Station
Airport
Location: Nice,
Elevation: 10 ft
Nearby Weather Stations

Elev 10 ft 43.65 °N, 7.21 °E | Updated 30 minutes ago

Mostly Cloudy
Mostly Cloudy
52 °F
Feels Like 52 °F
N
10
Wind Variable Wind from NW

Today
High -- | Low -- °F
--% Chance of Precip.
Yesterday
High -- | Low -- °F
Precip. -- in
Pressure 29.53 in
Visibility 6.2 miles
Clouds Few 1300 ft
Scattered Clouds 5300 ft
Mostly Cloudy 11000 ft
Dew Point 46 °F
Humidity 82%
Rainfall 0.00 in
Snow Depth Not available.
7:38 AM 5:51 PM
New Moon, 2% visible
METAR LFMN 092000Z 32009KT 9999 FEW013 SCT053 BKN110 11/08 Q1000 RERA BECMG 24015KT
Pressure 29.53 in
Visibility 6.2 miles
Clouds Few 1300 ft
Scattered Clouds 5300 ft
Mostly Cloudy 11000 ft
Dew Point 46 °F
Humidity 82%
Rainfall 0.00 in
Snow Depth Not available.
7:38 AM 5:51 PM
New Moon, 2% visible
METAR LFMN 092000Z 32009KT 9999 FEW013 SCT053 BKN110 11/08 Q1000 RERA BECMG 24015KT

10-Day Weather Forecast

Almanac

Astronomy

Feb. 09, 2016 Rise Set
Actual Time
Civil Twilight
Nautical Twilight
Astronomical Twilight
Moon
Length of Visible Light
Length of Day
Tomorrow will be .
, % of the Moon is Illuminated

Today's Extremes

Country Highs Country Lows

Community

WunderPhotos

Upload Photos

1,891,679 photos uploaded!

WunderBlog® & News

Nearby

Air Quality

  Air Quality AQ Index Pollutant
Not available.

Snow Depth

Station Depth Elevation

Earthquake Activity

City Distance Mag. Time & Date
Minimum magnitude displayed is 2.5.

Coastal Water Temperatures

Place Temperature

Stations

Nearby Weather Stations

Station Location Temp. Windchill Dew Point Humidity Wind Precip. Elev Updated Type